Half Day, Illinois
Current Conditions -  °F | °C
As of 6:52 PM on Tuesday 21 Oct 2014 (Local Time) from KPWK Reporting Station
Overcast Overcast  
Wind Chill: 45°   Ceiling: 3000
Heat Index: 49°   Visibility: 10mi
Dew Point: 37°   Wind: 9mph
Humidity: 64%   Direction: 360°N
Pressure: 30.24"   Gusts: NA
Location:  42.1941°N, 87.9317°W
Report Text: KPWK 212352Z 36008KT 10SM OVC030 09/03 A3024 RMK AO2 SLP243 T00940028 10117 20094 53013
Loading
Personal Weather Stations






























Interactive Weather Map New forecast layout! Learn more

10-Day Weather Forecast

Advertisements
Track Severe Weather on mobile